Time;durP1;ratioP1;P1;durP2;ratioP2;P2;SDS_P1;SDS_P2;PMS_P1;PMS_P2;Temp;Humidity;BMP_temperature;BMP_pressure;BME280_temperature;BME280_humidity;BME280_pressure;Samples;Min_cycle;Max_cycle;Signal;HPM_P1;HPM_P2
2022/11/20 00:02:10;;;;;;;;;;;3.90;89.10;;;;;;5062709;28;20030;-73
2022/11/20 00:04:35;;;;;;;;;;;3.90;89.10;;;;;;5068044;28;19912;-72
2022/11/20 00:07:01;;;;;;;;;;;3.90;89.20;;;;;;5063910;28;19912;-72
2022/11/20 00:09:26;;;;;;;;;;;4.00;89.20;;;;;;5069415;28;19913;-72
2022/11/20 00:11:52;;;;;;;;;;;4.00;89.20;;;;;;5066527;28;19920;-74
2022/11/20 00:14:17;;;;;;;;;;;4.00;89.20;;;;;;5068210;28;19931;-74
2022/11/20 00:16:43;;;;;;;;;;;4.00;89.30;;;;;;5068447;28;20615;-72
2022/11/20 00:19:09;;;;;;;;;;;3.90;89.30;;;;;;5071177;28;20293;-73
2022/11/20 00:21:34;;;;;;;;;;;4.00;89.20;;;;;;5066226;28;19995;-74
2022/11/20 00:24:00;;;;;;;;;;;4.00;89.30;;;;;;5069069;28;20015;-74
2022/11/20 00:26:26;;;;;;;;;;;4.00;89.40;;;;;;5069295;28;20442;-72
2022/11/20 00:29:01;;;;;;;;;;;4.00;89.40;;;;;;5068064;28;19958;-73
2022/11/20 00:31:27;;;;;;;;;;;4.00;89.40;;;;;;5067552;28;19924;-73
2022/11/20 00:33:52;;;;;;;;;;;4.00;89.40;;;;;;5068183;28;19994;-73
2022/11/20 00:36:25;;;;;;;;;;;4.00;89.40;;;;;;5066629;28;20062;-73
2022/11/20 00:38:51;;;;;;;;;;;4.00;89.40;;;;;;5047804;28;19951;-74
2022/11/20 00:41:16;;;;;;;;;;;4.00;89.40;;;;;;5062877;28;19916;-74
2022/11/20 00:43:42;;;;;;;;;;;4.10;89.50;;;;;;5074920;28;19923;-74
2022/11/20 00:46:09;;;;;;;;;;;4.10;89.60;;;;;;5067721;28;20424;-73
2022/11/20 00:48:34;;;;;;;;;;;4.10;89.50;;;;;;5067666;28;19912;-74
2022/11/20 00:51:00;;;;;;;;;;;4.10;89.60;;;;;;5086020;28;19912;-73
2022/11/20 00:53:26;;;;;;;;;;;4.00;89.50;;;;;;5087591;28;19908;-74
2022/11/20 00:55:55;;;;;;;;;;;4.10;89.70;;;;;;5087555;28;19955;-73
2022/11/20 00:58:20;;;;;;;;;;;4.10;89.60;;;;;;5087359;28;20143;-74
2022/11/20 01:00:46;;;;;;;;;;;4.10;89.50;;;;;;5069191;28;19962;-73
2022/11/20 01:03:11;;;;;;;;;;;4.10;89.50;;;;;;5067600;28;19951;-74
2022/11/20 01:05:37;;;;;;;;;;;4.10;89.60;;;;;;5066837;28;20282;-73
2022/11/20 01:08:02;;;;;;;;;;;4.10;89.60;;;;;;5053347;28;19916;-73
2022/11/20 01:10:28;;;;;;;;;;;4.10;89.60;;;;;;5044844;28;19920;-73
2022/11/20 01:13:36;;;;;;;;;;;4.10;89.60;;;;;;5062872;28;20461;-73
2022/11/20 01:15:39;;;;;;;;;;;4.20;89.80;;;;;;5068345;28;19966;-73
2022/11/20 01:18:05;;;;;;;;;;;4.10;89.60;;;;;;5067233;28;20375;-74
2022/11/20 01:20:34;;;;;;;;;;;4.10;89.70;;;;;;5081077;28;19912;-74
2022/11/20 01:22:59;;;;;;;;;;;4.10;89.70;;;;;;5087613;28;19959;-74
2022/11/20 01:25:25;;;;;;;;;;;4.10;89.80;;;;;;5088132;28;20325;-73
2022/11/20 01:27:51;;;;;;;;;;;4.10;89.80;;;;;;5087827;28;19915;-73
2022/11/20 01:30:16;;;;;;;;;;;4.10;89.90;;;;;;5079277;28;20676;-73
2022/11/20 01:32:42;;;;;;;;;;;4.10;89.80;;;;;;5073721;28;19935;-74
2022/11/20 01:35:09;;;;;;;;;;;4.10;89.80;;;;;;5087393;28;19920;-74
2022/11/20 01:37:34;;;;;;;;;;;4.10;89.80;;;;;;5077580;28;19912;-74
2022/11/20 01:40:00;;;;;;;;;;;4.10;89.90;;;;;;5066132;28;19918;-73
2022/11/20 01:45:28;;;;;;;;;;;4.10;89.80;;;;;;5066831;28;19958;-74
2022/11/20 01:47:54;;;;;;;;;;;4.10;89.90;;;;;;5068324;28;19912;-74
2022/11/20 01:50:24;;;;;;;;;;;4.00;89.90;;;;;;5079620;28;19923;-74
2022/11/20 01:52:51;;;;;;;;;;;4.10;89.90;;;;;;5086314;28;20376;-74
2022/11/20 01:55:18;;;;;;;;;;;4.10;89.90;;;;;;5085829;28;19959;-74
2022/11/20 01:57:45;;;;;;;;;;;4.10;89.90;;;;;;5085929;28;19919;-74
2022/11/20 02:00:12;;;;;;;;;;;4.10;89.90;;;;;;5078279;28;19948;-74
2022/11/20 02:02:39;;;;;;;;;;;4.10;89.90;;;;;;5066222;28;19946;-74
2022/11/20 02:05:11;;;;;;;;;;;4.10;89.90;;;;;;5077983;28;19978;-74
2022/11/20 02:07:40;;;;;;;;;;;4.10;90.00;;;;;;5075704;28;20411;-74
2022/11/20 02:10:06;;;;;;;;;;;4.10;90.00;;;;;;5065390;28;19948;-74
2022/11/20 02:15:16;;;;;;;;;;;4.10;90.00;;;;;;5066158;28;20484;-73
2022/11/20 02:17:41;;;;;;;;;;;4.10;90.00;;;;;;5065905;28;19920;-73
2022/11/20 02:20:07;;;;;;;;;;;4.10;90.00;;;;;;5076006;28;19912;-73
2022/11/20 02:22:37;;;;;;;;;;;4.10;90.00;;;;;;5067802;28;19932;-74
2022/11/20 02:25:04;;;;;;;;;;;4.10;90.00;;;;;;5066103;28;20371;-73
2022/11/20 02:27:29;;;;;;;;;;;4.10;90.10;;;;;;5065730;28;19917;-74
2022/11/20 02:30:01;;;;;;;;;;;4.10;90.10;;;;;;5064194;28;19912;-73
2022/11/20 02:32:30;;;;;;;;;;;4.10;90.00;;;;;;5060084;28;20272;-73
2022/11/20 02:34:56;;;;;;;;;;;4.20;90.10;;;;;;5065434;28;19999;-74
2022/11/20 02:37:22;;;;;;;;;;;4.20;90.10;;;;;;5063707;28;19999;-74
2022/11/20 02:39:49;;;;;;;;;;;4.20;90.10;;;;;;5065434;28;19920;-74
2022/11/20 02:42:15;;;;;;;;;;;4.10;90.10;;;;;;5065575;28;19947;-73
2022/11/20 02:44:40;;;;;;;;;;;4.20;90.20;;;;;;5065842;28;19956;-73
2022/11/20 02:47:06;;;;;;;;;;;4.10;90.20;;;;;;5065606;28;19912;-74
2022/11/20 02:49:32;;;;;;;;;;;4.20;90.20;;;;;;5071425;28;19948;-74
2022/11/20 02:51:58;;;;;;;;;;;4.20;90.20;;;;;;5084151;28;19914;-73
2022/11/20 02:54:24;;;;;;;;;;;4.10;90.20;;;;;;5077458;28;19961;-73
2022/11/20 02:56:49;;;;;;;;;;;4.20;90.20;;;;;;5065317;28;20365;-73
2022/11/20 02:59:15;;;;;;;;;;;4.10;90.20;;;;;;5065586;28;19908;-73
2022/11/20 03:01:40;;;;;;;;;;;4.20;90.20;;;;;;5065165;28;20000;-74
2022/11/20 03:04:06;;;;;;;;;;;4.20;90.30;;;;;;5064912;28;19916;-73
2022/11/20 03:06:31;;;;;;;;;;;4.20;90.30;;;;;;5065433;28;19913;-73
2022/11/20 03:08:57;;;;;;;;;;;4.20;90.30;;;;;;5064868;28;19951;-73
2022/11/20 03:11:22;;;;;;;;;;;4.10;90.30;;;;;;5065530;28;19924;-73
2022/11/20 03:13:48;;;;;;;;;;;4.20;90.30;;;;;;5065465;28;19912;-73
2022/11/20 03:16:15;;;;;;;;;;;4.20;90.40;;;;;;5065742;28;20250;-73
2022/11/20 03:18:41;;;;;;;;;;;4.20;90.40;;;;;;5065717;28;19913;-73
2022/11/20 03:21:08;;;;;;;;;;;4.20;90.40;;;;;;5084633;28;19912;-73
2022/11/20 03:23:34;;;;;;;;;;;4.20;90.40;;;;;;5085878;28;20015;-74
2022/11/20 03:26:18;;;;;;;;;;;4.20;90.40;;;;;;5085242;28;20026;-74
2022/11/20 03:28:55;;;;;;;;;;;4.20;90.40;;;;;;5068043;28;19923;-73
2022/11/20 03:31:22;;;;;;;;;;;4.20;90.50;;;;;;5064962;28;19915;-74
2022/11/20 03:33:47;;;;;;;;;;;4.20;90.50;;;;;;5065082;28;19962;-73
2022/11/20 03:36:14;;;;;;;;;;;4.20;90.50;;;;;;5065409;28;19930;-74
2022/11/20 03:38:39;;;;;;;;;;;4.20;90.50;;;;;;5064982;28;19920;-74
2022/11/20 03:41:09;;;;;;;;;;;4.20;90.50;;;;;;5064760;28;20282;-73
2022/11/20 03:43:35;;;;;;;;;;;4.30;90.50;;;;;;5065362;28;19916;-74
2022/11/20 03:46:00;;;;;;;;;;;4.30;90.50;;;;;;5065200;28;20078;-73
2022/11/20 03:48:26;;;;;;;;;;;4.20;90.50;;;;;;5064895;28;19908;-73
2022/11/20 03:50:52;;;;;;;;;;;4.30;90.50;;;;;;5081825;28;19919;-74
2022/11/20 03:53:18;;;;;;;;;;;4.20;90.60;;;;;;5083907;28;19908;-73
2022/11/20 03:55:43;;;;;;;;;;;4.30;90.60;;;;;;5085342;28;19912;-73
2022/11/20 03:58:09;;;;;;;;;;;4.30;90.60;;;;;;5085216;28;19951;-73
2022/11/20 04:00:35;;;;;;;;;;;4.30;90.60;;;;;;5073279;28;19935;-73
2022/11/20 04:03:01;;;;;;;;;;;4.30;90.60;;;;;;5064946;28;20626;-73
2022/11/20 04:05:26;;;;;;;;;;;4.30;90.60;;;;;;5065869;28;20012;-74
2022/11/20 04:07:52;;;;;;;;;;;4.30;90.60;;;;;;5065458;28;20559;-73
2022/11/20 04:10:17;;;;;;;;;;;4.30;90.60;;;;;;5064364;28;19912;-73
2022/11/20 04:12:43;;;;;;;;;;;4.30;90.70;;;;;;5064733;28;20285;-74
2022/11/20 04:15:08;;;;;;;;;;;4.30;90.70;;;;;;5064406;28;19969;-73
2022/11/20 04:17:34;;;;;;;;;;;4.30;90.70;;;;;;5065158;28;20360;-75
2022/11/20 04:20:00;;;;;;;;;;;4.30;90.70;;;;;;5074014;28;19916;-74
2022/11/20 04:22:25;;;;;;;;;;;4.30;90.70;;;;;;5086063;28;19912;-74
2022/11/20 04:24:51;;;;;;;;;;;4.30;90.70;;;;;;5086748;28;20804;-74
2022/11/20 04:27:16;;;;;;;;;;;4.40;90.80;;;;;;5088254;28;19965;-74
2022/11/20 04:29:42;;;;;;;;;;;4.30;90.80;;;;;;5084853;28;19912;-74
2022/11/20 04:32:07;;;;;;;;;;;4.30;90.80;;;;;;5067714;28;19916;-75
2022/11/20 04:34:33;;;;;;;;;;;4.30;90.80;;;;;;5075436;28;19995;-74
2022/11/20 04:36:58;;;;;;;;;;;4.30;90.80;;;;;;5082560;28;19920;-74
2022/11/20 04:39:24;;;;;;;;;;;4.40;90.90;;;;;;5067692;28;19920;-75
2022/11/20 04:42:28;;;;;;;;;;;4.30;90.80;;;;;;5067924;28;20494;-74
2022/11/20 04:44:35;;;;;;;;;;;4.40;90.90;;;;;;5067568;28;19924;-75
2022/11/20 04:47:00;;;;;;;;;;;4.40;90.90;;;;;;5067628;28;19913;-75
2022/11/20 04:49:26;;;;;;;;;;;4.40;90.90;;;;;;5072776;28;19919;-75
2022/11/20 04:51:54;;;;;;;;;;;4.40;90.90;;;;;;5071811;28;20015;-75
2022/11/20 04:54:22;;;;;;;;;;;4.40;90.90;;;;;;5047537;28;19970;-74
2022/11/20 04:56:48;;;;;;;;;;;4.40;90.90;;;;;;5047305;28;19912;-73
2022/11/20 04:59:13;;;;;;;;;;;4.40;90.90;;;;;;5047624;28;19920;-74
2022/11/20 05:01:39;;;;;;;;;;;4.40;90.90;;;;;;5066649;28;19970;-73
2022/11/20 05:04:05;;;;;;;;;;;4.40;91.00;;;;;;5066987;28;19955;-73
2022/11/20 05:06:30;;;;;;;;;;;4.40;91.00;;;;;;5066720;28;20528;-73
2022/11/20 05:08:56;;;;;;;;;;;4.40;91.00;;;;;;5067656;28;19920;-74
2022/11/20 05:11:22;;;;;;;;;;;4.40;91.00;;;;;;5067200;28;19970;-73
2022/11/20 05:13:50;;;;;;;;;;;4.40;91.00;;;;;;5067163;28;20295;-74
2022/11/20 05:16:17;;;;;;;;;;;4.40;91.00;;;;;;5065877;28;19909;-74
2022/11/20 05:18:43;;;;;;;;;;;4.40;91.10;;;;;;5067348;28;19912;-73
2022/11/20 05:21:09;;;;;;;;;;;4.40;91.00;;;;;;5086292;28;20025;-74
2022/11/20 05:23:35;;;;;;;;;;;4.40;91.10;;;;;;5087588;28;19916;-73
2022/11/20 05:26:01;;;;;;;;;;;4.30;91.10;;;;;;5068416;28;19917;-73
2022/11/20 05:28:27;;;;;;;;;;;4.40;91.10;;;;;;5067338;28;20364;-74
2022/11/20 05:30:53;;;;;;;;;;;4.40;91.10;;;;;;5067009;28;19912;-74
2022/11/20 05:33:18;;;;;;;;;;;4.40;91.10;;;;;;5067169;28;19922;-73
2022/11/20 05:35:44;;;;;;;;;;;4.40;91.10;;;;;;5066844;28;19913;-74
2022/11/20 05:38:10;;;;;;;;;;;4.40;91.10;;;;;;5067088;28;19912;-73
2022/11/20 05:40:35;;;;;;;;;;;4.40;91.10;;;;;;5068338;28;19912;-74
2022/11/20 05:43:01;;;;;;;;;;;4.40;91.10;;;;;;5066719;28;19917;-74
2022/11/20 05:45:27;;;;;;;;;;;4.30;91.10;;;;;;5066614;28;19995;-73
2022/11/20 05:47:52;;;;;;;;;;;4.40;91.10;;;;;;5067167;28;20647;-73
2022/11/20 05:50:17;;;;;;;;;;;4.40;91.10;;;;;;5070800;28;20288;-74
2022/11/20 05:52:43;;;;;;;;;;;4.40;91.10;;;;;;5071038;28;19996;-73
2022/11/20 05:55:09;;;;;;;;;;;4.40;91.20;;;;;;5086913;28;20336;-74
2022/11/20 05:57:34;;;;;;;;;;;4.40;91.20;;;;;;5086268;28;19908;-74
2022/11/20 06:00:00;;;;;;;;;;;4.40;91.20;;;;;;5079388;28;19912;-74
2022/11/20 06:02:25;;;;;;;;;;;4.40;91.20;;;;;;5061052;28;19913;-74
2022/11/20 06:04:51;;;;;;;;;;;4.40;91.20;;;;;;5066219;28;19912;-74
2022/11/20 06:07:16;;;;;;;;;;;4.40;91.20;;;;;;5058878;28;19919;-74
2022/11/20 06:09:42;;;;;;;;;;;4.40;91.20;;;;;;5046257;28;20046;-74
2022/11/20 06:12:07;;;;;;;;;;;4.40;91.20;;;;;;5046748;28;19939;-73
2022/11/20 06:14:33;;;;;;;;;;;4.40;91.20;;;;;;5046093;28;19956;-73
2022/11/20 06:16:59;;;;;;;;;;;4.40;91.20;;;;;;5057752;28;19920;-73
2022/11/20 06:19:24;;;;;;;;;;;4.40;91.20;;;;;;5071772;28;19916;-73
2022/11/20 06:21:50;;;;;;;;;;;4.40;91.20;;;;;;5086148;28;19912;-73
2022/11/20 06:24:16;;;;;;;;;;;4.40;91.30;;;;;;5086268;28;19916;-74
2022/11/20 06:26:41;;;;;;;;;;;4.40;91.30;;;;;;5086348;28;20611;-74
2022/11/20 06:29:07;;;;;;;;;;;4.40;91.20;;;;;;5086195;28;19919;-74
2022/11/20 06:31:34;;;;;;;;;;;4.40;91.30;;;;;;5067706;28;19912;-74
2022/11/20 06:34:00;;;;;;;;;;;4.30;91.30;;;;;;5065851;28;19916;-73
2022/11/20 06:36:26;;;;;;;;;;;4.30;91.30;;;;;;5065533;28;19970;-74
2022/11/20 06:38:52;;;;;;;;;;;4.40;91.30;;;;;;5045562;28;19913;-73
2022/11/20 06:41:19;;;;;;;;;;;4.30;91.30;;;;;;5045728;28;19919;-73
2022/11/20 06:43:44;;;;;;;;;;;4.30;91.30;;;;;;5058666;28;19923;-73
2022/11/20 06:46:11;;;;;;;;;;;4.30;91.30;;;;;;5065535;28;19912;-74
2022/11/20 06:48:36;;;;;;;;;;;4.30;91.30;;;;;;5067541;28;19923;-74
2022/11/20 06:51:05;;;;;;;;;;;4.40;91.30;;;;;;5082985;28;20272;-74
2022/11/20 06:53:31;;;;;;;;;;;4.30;91.30;;;;;;5085952;28;20563;-74
2022/11/20 06:55:59;;;;;;;;;;;4.30;91.30;;;;;;5085592;28;19912;-73
2022/11/20 06:58:28;;;;;;;;;;;4.30;91.30;;;;;;5086276;28;19911;-74
2022/11/20 07:00:57;;;;;;;;;;;4.30;91.30;;;;;;5059776;28;19972;-75
2022/11/20 07:03:23;;;;;;;;;;;4.30;91.30;;;;;;5065506;28;19959;-74
2022/11/20 07:05:48;;;;;;;;;;;4.30;91.30;;;;;;5066756;28;20385;-73
2022/11/20 07:08:14;;;;;;;;;;;4.30;91.30;;;;;;5048814;28;19913;-74
2022/11/20 07:10:39;;;;;;;;;;;4.30;91.30;;;;;;5045465;28;19947;-74
2022/11/20 07:13:06;;;;;;;;;;;4.30;91.30;;;;;;5045469;28;19917;-74
2022/11/20 07:15:32;;;;;;;;;;;4.30;91.30;;;;;;5045609;28;19913;-75
2022/11/20 07:18:01;;;;;;;;;;;4.30;91.30;;;;;;5045423;28;19936;-74
2022/11/20 07:20:27;;;;;;;;;;;4.20;91.30;;;;;;5072354;28;19963;-74
2022/11/20 07:22:53;;;;;;;;;;;4.20;91.30;;;;;;5085137;28;19956;-74
2022/11/20 07:25:18;;;;;;;;;;;4.30;91.30;;;;;;5085854;28;19916;-74
2022/11/20 07:27:44;;;;;;;;;;;4.20;91.30;;;;;;5084023;28;19919;-74
2022/11/20 07:30:10;;;;;;;;;;;4.30;91.30;;;;;;5076085;28;19909;-75
2022/11/20 07:32:35;;;;;;;;;;;4.30;91.20;;;;;;5063734;28;19908;-74
2022/11/20 07:35:00;;;;;;;;;;;4.30;91.20;;;;;;5062309;28;19923;-75
2022/11/20 07:37:26;;;;;;;;;;;4.30;91.20;;;;;;5059658;28;19912;-74
2022/11/20 07:39:51;;;;;;;;;;;4.20;91.10;;;;;;5067923;28;19924;-73
2022/11/20 07:42:17;;;;;;;;;;;4.20;91.10;;;;;;5065087;28;19913;-73
2022/11/20 07:44:42;;;;;;;;;;;4.20;91.10;;;;;;5064151;28;20001;-73
2022/11/20 07:47:08;;;;;;;;;;;4.20;91.10;;;;;;5069337;28;19912;-73
2022/11/20 07:49:33;;;;;;;;;;;4.20;91.20;;;;;;5084983;28;20536;-74
2022/11/20 07:51:59;;;;;;;;;;;4.30;91.10;;;;;;5070688;28;19923;-74
2022/11/20 07:54:24;;;;;;;;;;;4.20;91.10;;;;;;5064763;28;19919;-73
2022/11/20 07:56:50;;;;;;;;;;;4.20;91.10;;;;;;5065645;28;19921;-73
2022/11/20 07:59:15;;;;;;;;;;;4.20;91.20;;;;;;5067687;28;20467;-73
2022/11/20 08:01:41;;;;;;;;;;;4.20;91.20;;;;;;5067954;28;19988;-74
2022/11/20 08:04:07;;;;;;;;;;;4.20;91.10;;;;;;5068391;28;19971;-74
2022/11/20 08:06:32;;;;;;;;;;;4.20;91.10;;;;;;5068988;28;20327;-73
2022/11/20 08:08:58;;;;;;;;;;;4.20;91.10;;;;;;5079402;28;19915;-72
2022/11/20 08:14:11;;;;;;;;;;;4.20;91.10;;;;;;5087733;28;20555;-72
2022/11/20 08:16:37;;;;;;;;;;;4.20;91.10;;;;;;5088416;28;19912;-72
2022/11/20 08:19:02;;;;;;;;;;;4.20;91.10;;;;;;5088892;28;19919;-72
2022/11/20 08:21:28;;;;;;;;;;;4.20;91.10;;;;;;5088648;28;19912;-71
2022/11/20 08:23:53;;;;;;;;;;;4.20;91.20;;;;;;5088142;28;20326;-72
2022/11/20 08:26:20;;;;;;;;;;;4.20;91.10;;;;;;5089206;28;19963;-72
2022/11/20 08:28:45;;;;;;;;;;;4.20;91.20;;;;;;5089367;28;20440;-72
2022/11/20 08:31:11;;;;;;;;;;;4.20;91.20;;;;;;5067563;28;20011;-72
2022/11/20 08:33:36;;;;;;;;;;;4.20;91.10;;;;;;5068259;28;19916;-72
2022/11/20 08:36:03;;;;;;;;;;;4.20;91.20;;;;;;5067995;28;20257;-71
2022/11/20 08:38:29;;;;;;;;;;;4.20;91.10;;;;;;5052535;28;19959;-72
2022/11/20 08:43:42;;;;;;;;;;;4.30;91.10;;;;;;5075723;28;19990;-72
2022/11/20 08:46:08;;;;;;;;;;;4.20;91.10;;;;;;5067371;28;19912;-71
2022/11/20 08:48:33;;;;;;;;;;;4.20;91.10;;;;;;5068554;28;20373;-72
2022/11/20 08:50:59;;;;;;;;;;;4.20;91.10;;;;;;5084511;28;19916;-71
2022/11/20 08:53:25;;;;;;;;;;;4.20;91.20;;;;;;5086833;28;20006;-72
2022/11/20 08:55:50;;;;;;;;;;;4.20;91.20;;;;;;5087424;28;19916;-72
2022/11/20 08:58:16;;;;;;;;;;;4.20;91.20;;;;;;5088303;28;19940;-71
2022/11/20 09:00:41;;;;;;;;;;;4.30;91.20;;;;;;5070813;28;20575;-72
2022/11/20 09:03:06;;;;;;;;;;;4.30;91.20;;;;;;5067462;28;19916;-72
2022/11/20 09:05:32;;;;;;;;;;;4.20;91.20;;;;;;5067137;28;19995;-72
2022/11/20 09:07:58;;;;;;;;;;;4.30;91.20;;;;;;5054458;28;19916;-72
2022/11/20 09:10:23;;;;;;;;;;;4.20;91.20;;;;;;5047238;28;20657;-72
2022/11/20 09:12:49;;;;;;;;;;;4.30;91.20;;;;;;5059354;28;20024;-71
2022/11/20 09:15:14;;;;;;;;;;;4.20;91.20;;;;;;5067752;28;20261;-72
2022/11/20 09:17:40;;;;;;;;;;;4.30;91.20;;;;;;5067404;28;19951;-71
2022/11/20 09:20:06;;;;;;;;;;;4.30;91.20;;;;;;5078072;28;19912;-72
2022/11/20 09:22:31;;;;;;;;;;;4.30;91.20;;;;;;5087694;28;19912;-73
2022/11/20 09:24:57;;;;;;;;;;;4.30;91.20;;;;;;5083376;28;19916;-72
2022/11/20 09:27:22;;;;;;;;;;;4.30;91.20;;;;;;5060040;28;19920;-72
2022/11/20 09:29:48;;;;;;;;;;;4.30;91.20;;;;;;5067817;28;20615;-73
2022/11/20 09:32:13;;;;;;;;;;;4.30;91.20;;;;;;5069919;28;19982;-72
2022/11/20 09:34:38;;;;;;;;;;;4.30;91.20;;;;;;5072341;28;19916;-71
2022/11/20 09:37:04;;;;;;;;;;;4.30;91.20;;;;;;5067023;28;20739;-72
2022/11/20 09:39:29;;;;;;;;;;;4.40;91.30;;;;;;5066858;28;19916;-72
2022/11/20 09:42:00;;;;;;;;;;;4.40;91.30;;;;;;5065737;28;19947;-72
2022/11/20 09:44:43;;;;;;;;;;;4.40;91.20;;;;;;5066940;28;19917;-72
2022/11/20 09:47:12;;;;;;;;;;;4.40;91.30;;;;;;5082639;28;19916;-72
2022/11/20 09:49:41;;;;;;;;;;;4.50;91.20;;;;;;5079275;28;19952;-72
2022/11/20 09:52:15;;;;;;;;;;;4.50;91.20;;;;;;5066225;28;19952;-72
2022/11/20 09:54:41;;;;;;;;;;;4.60;91.20;;;;;;5066322;28;19912;-72
2022/11/20 09:57:11;;;;;;;;;;;4.60;91.20;;;;;;5066706;28;20428;-72
2022/11/20 09:59:43;;;;;;;;;;;4.60;91.20;;;;;;5066225;28;19939;-72
2022/11/20 10:02:27;;;;;;;;;;;4.60;91.20;;;;;;5066553;28;20013;-72
2022/11/20 10:05:06;;;;;;;;;;;4.70;91.10;;;;;;5066409;28;19917;-72
2022/11/20 10:07:39;;;;;;;;;;;4.80;91.10;;;;;;5055409;28;20419;-73
2022/11/20 10:10:04;;;;;;;;;;;4.80;91.10;;;;;;5046148;28;20292;-73
2022/11/20 10:12:30;;;;;;;;;;;4.80;91.10;;;;;;5077803;28;19917;-73
2022/11/20 10:15:06;;;;;;;;;;;4.80;91.00;;;;;;5078300;28;20377;-73
2022/11/20 10:17:58;;;;;;;;;;;4.90;91.10;;;;;;5045853;28;19958;-73
2022/11/20 10:20:27;;;;;;;;;;;4.90;90.90;;;;;;5082475;28;19913;-72
2022/11/20 10:22:58;;;;;;;;;;;5.00;91.00;;;;;;5086550;28;19916;-73
2022/11/20 10:25:33;;;;;;;;;;;5.00;91.00;;;;;;5086865;28;20785;-71
2022/11/20 10:28:08;;;;;;;;;;;5.00;91.00;;;;;;5086136;28;19920;-72
2022/11/20 10:30:43;;;;;;;;;;;5.10;91.00;;;;;;5070954;28;19920;-72
2022/11/20 10:33:11;;;;;;;;;;;5.10;91.00;;;;;;5066050;28;20656;-73
2022/11/20 10:35:40;;;;;;;;;;;5.10;90.90;;;;;;5066952;28;20006;-72
2022/11/20 10:38:12;;;;;;;;;;;5.20;90.90;;;;;;5064683;28;20016;-73
2022/11/20 10:40:40;;;;;;;;;;;5.20;90.90;;;;;;5065761;28;19981;-73
2022/11/20 10:43:12;;;;;;;;;;;5.30;90.90;;;;;;5064429;28;19924;-72
2022/11/20 10:45:49;;;;;;;;;;;5.30;90.90;;;;;;5066169;28;20668;-73
2022/11/20 10:48:16;;;;;;;;;;;5.30;90.90;;;;;;5066262;28;19955;-73
2022/11/20 10:50:49;;;;;;;;;;;5.40;90.90;;;;;;5080982;28;19968;-72
2022/11/20 10:53:27;;;;;;;;;;;5.40;90.80;;;;;;5075510;28;19909;-72
2022/11/20 10:55:56;;;;;;;;;;;5.40;90.90;;;;;;5064186;28;20646;-72
2022/11/20 10:58:40;;;;;;;;;;;5.40;90.90;;;;;;5066005;28;19917;-72
2022/11/20 11:01:13;;;;;;;;;;;5.50;90.90;;;;;;5065430;28;19908;-73
2022/11/20 11:03:38;;;;;;;;;;;5.50;90.90;;;;;;5064120;28;19917;-72
2022/11/20 11:06:10;;;;;;;;;;;5.50;90.90;;;;;;5065344;28;19966;-73
2022/11/20 11:08:39;;;;;;;;;;;5.60;90.90;;;;;;5064472;28;19912;-72
2022/11/20 11:11:23;;;;;;;;;;;5.60;90.90;;;;;;5065277;28;19923;-72
2022/11/20 11:13:49;;;;;;;;;;;5.60;90.90;;;;;;5059411;28;20384;-72
2022/11/20 11:16:25;;;;;;;;;;;5.60;91.00;;;;;;5060242;28;19920;-73
2022/11/20 11:18:51;;;;;;;;;;;5.60;91.30;;;;;;5063245;28;19912;-73
2022/11/20 11:21:26;;;;;;;;;;;5.60;90.90;;;;;;5084241;28;19912;-73
2022/11/20 11:23:59;;;;;;;;;;;5.70;91.00;;;;;;5083135;28;20006;-73
2022/11/20 11:26:25;;;;;;;;;;;5.70;91.00;;;;;;5077555;28;19922;-73
2022/11/20 11:29:01;;;;;;;;;;;5.70;91.00;;;;;;5064481;28;19912;-72
2022/11/20 11:31:30;;;;;;;;;;;5.70;91.30;;;;;;5066171;28;19912;-72
2022/11/20 11:34:12;;;;;;;;;;;5.70;91.00;;;;;;5066501;28;19915;-72
2022/11/20 11:36:38;;;;;;;;;;;5.70;91.00;;;;;;5068213;28;19960;-73
2022/11/20 11:39:05;;;;;;;;;;;5.80;91.00;;;;;;5067772;28;19955;-73
2022/11/20 11:41:34;;;;;;;;;;;5.80;91.00;;;;;;5068829;28;19913;-73
2022/11/20 11:46:53;;;;;;;;;;;5.80;90.90;;;;;;5068767;28;20554;-73
2022/11/20 11:49:19;;;;;;;;;;;5.90;90.90;;;;;;5072468;28;19912;-73
2022/11/20 11:51:47;;;;;;;;;;;5.90;90.90;;;;;;5088527;28;20439;-73
2022/11/20 11:54:19;;;;;;;;;;;6.00;90.90;;;;;;5088715;28;19965;-73
2022/11/20 11:56:44;;;;;;;;;;;6.00;90.90;;;;;;5071130;28;19916;-73
2022/11/20 11:59:12;;;;;;;;;;;6.00;90.90;;;;;;5068168;28;19913;-73
2022/11/20 12:01:42;;;;;;;;;;;6.10;90.80;;;;;;5068391;28;19912;-73
2022/11/20 12:04:16;;;;;;;;;;;6.10;90.80;;;;;;5068187;28;19916;-73
2022/11/20 12:06:48;;;;;;;;;;;6.10;90.80;;;;;;5068108;28;19963;-73
2022/11/20 12:09:13;;;;;;;;;;;6.10;90.80;;;;;;5068171;28;20395;-73
2022/11/20 12:11:58;;;;;;;;;;;6.10;90.80;;;;;;5068019;28;19924;-73
2022/11/20 12:14:52;;;;;;;;;;;6.10;90.90;;;;;;5067621;28;19913;-73
2022/11/20 12:17:17;;;;;;;;;;;6.10;90.90;;;;;;5069627;28;19922;-73
2022/11/20 12:19:43;;;;;;;;;;;6.10;91.00;;;;;;5075528;28;20268;-73
2022/11/20 12:22:28;;;;;;;;;;;6.10;91.00;;;;;;5088061;28;19923;-73
2022/11/20 12:25:12;;;;;;;;;;;6.20;91.00;;;;;;5087571;28;19920;-73
2022/11/20 12:27:37;;;;;;;;;;;6.10;91.00;;;;;;5088326;28;19943;-73
2022/11/20 12:30:11;;;;;;;;;;;6.10;91.00;;;;;;5081692;28;19963;-73
2022/11/20 12:32:42;;;;;;;;;;;6.10;91.00;;;;;;5066982;28;20059;-73
2022/11/20 12:35:26;;;;;;;;;;;6.20;91.00;;;;;;5085409;28;19986;-73
2022/11/20 12:38:07;;;;;;;;;;;6.20;91.10;;;;;;5075505;28;19982;-73
2022/11/20 12:40:54;;;;;;;;;;;6.20;91.10;;;;;;5067383;28;19936;-73
2022/11/20 12:46:09;;;;;;;;;;;6.20;91.10;;;;;;5067773;28;20494;-73
2022/11/20 12:48:54;;;;;;;;;;;6.20;91.10;;;;;;5067124;28;20007;-73
2022/11/20 12:51:45;;;;;;;;;;;6.10;91.20;;;;;;5063549;28;19920;-73
2022/11/20 12:54:22;;;;;;;;;;;6.20;91.20;;;;;;5057659;28;19948;-73
2022/11/20 12:57:06;;;;;;;;;;;6.20;91.20;;;;;;5063014;28;20423;-73
2022/11/20 12:59:47;;;;;;;;;;;6.20;91.20;;;;;;5066398;28;19939;-73
2022/11/20 13:02:18;;;;;;;;;;;6.20;91.30;;;;;;5065918;28;19912;-73
2022/11/20 13:04:44;;;;;;;;;;;6.20;91.30;;;;;;5067023;28;19966;-73
2022/11/20 13:07:11;;;;;;;;;;;6.10;91.30;;;;;;5068618;28;19942;-73
2022/11/20 13:09:40;;;;;;;;;;;6.10;91.30;;;;;;5066736;28;19926;-73
2022/11/20 13:12:14;;;;;;;;;;;6.10;91.40;;;;;;5066954;28;19982;-73
2022/11/20 13:14:50;;;;;;;;;;;6.10;91.40;;;;;;5066494;28;19923;-73
2022/11/20 13:17:33;;;;;;;;;;;6.10;91.40;;;;;;5066818;28;19919;-73
2022/11/20 13:19:59;;;;;;;;;;;6.10;91.40;;;;;;5063933;28;19912;-72
2022/11/20 13:22:25;;;;;;;;;;;6.10;91.40;;;;;;5065761;28;19918;-73
2022/11/20 13:24:51;;;;;;;;;;;6.10;91.40;;;;;;5084106;28;19966;-73
2022/11/20 13:27:19;;;;;;;;;;;6.10;91.40;;;;;;5086663;28;19915;-73
2022/11/20 13:29:46;;;;;;;;;;;6.10;91.40;;;;;;5082941;28;19913;-73
2022/11/20 13:32:14;;;;;;;;;;;6.10;91.50;;;;;;5059749;28;19919;-73
2022/11/20 13:34:39;;;;;;;;;;;6.10;91.50;;;;;;5066084;28;19924;-73
2022/11/20 13:37:05;;;;;;;;;;;6.10;91.50;;;;;;5060050;28;19920;-73
2022/11/20 13:39:32;;;;;;;;;;;6.10;91.50;;;;;;5049130;28;20484;-73
2022/11/20 13:41:59;;;;;;;;;;;6.10;91.50;;;;;;5066256;28;19912;-73
2022/11/20 13:44:38;;;;;;;;;;;6.10;91.50;;;;;;5082236;28;19919;-73
2022/11/20 13:47:15;;;;;;;;;;;6.10;91.50;;;;;;5086310;28;19936;-73
2022/11/20 13:49:41;;;;;;;;;;;6.10;91.60;;;;;;5086187;28;20705;-73
2022/11/20 13:52:25;;;;;;;;;;;6.10;91.50;;;;;;5071446;28;19916;-73
2022/11/20 13:54:51;;;;;;;;;;;6.10;91.60;;;;;;5065292;28;19909;-73
2022/11/20 13:57:36;;;;;;;;;;;6.10;91.50;;;;;;5067942;28;19924;-73
2022/11/20 14:00:18;;;;;;;;;;;6.10;91.50;;;;;;5065743;28;19961;-73
2022/11/20 14:02:50;;;;;;;;;;;6.10;91.60;;;;;;5080565;28;20353;-73
2022/11/20 14:05:22;;;;;;;;;;;6.10;91.60;;;;;;5086739;28;20035;-73
2022/11/20 14:07:49;;;;;;;;;;;6.10;91.60;;;;;;5074120;28;20008;-73
2022/11/20 14:10:25;;;;;;;;;;;6.10;91.60;;;;;;5067091;28;20019;-73
2022/11/20 14:12:51;;;;;;;;;;;6.10;91.60;;;;;;5066767;28;19917;-73
2022/11/20 14:15:24;;;;;;;;;;;6.10;91.60;;;;;;5067974;28;19972;-73
2022/11/20 14:17:49;;;;;;;;;;;6.10;91.60;;;;;;5066479;28;19923;-73
2022/11/20 14:20:15;;;;;;;;;;;6.10;91.60;;;;;;5078115;28;19912;-73
2022/11/20 14:22:47;;;;;;;;;;;6.10;91.60;;;;;;5086816;28;19912;-73
2022/11/20 14:25:16;;;;;;;;;;;6.10;91.60;;;;;;5087230;28;19919;-73
2022/11/20 14:27:42;;;;;;;;;;;6.10;91.60;;;;;;5086973;28;19920;-73
2022/11/20 14:30:15;;;;;;;;;;;6.10;91.60;;;;;;5073179;28;20006;-73
2022/11/20 14:32:41;;;;;;;;;;;6.10;91.90;;;;;;5062982;28;20480;-73
2022/11/20 14:35:09;;;;;;;;;;;6.10;91.70;;;;;;5066088;28;19912;-73
2022/11/20 14:37:37;;;;;;;;;;;6.10;91.70;;;;;;5065754;28;19912;-73
2022/11/20 14:40:03;;;;;;;;;;;6.10;91.70;;;;;;5063720;28;20261;-74
2022/11/20 14:42:30;;;;;;;;;;;6.10;91.70;;;;;;5065711;28;19920;-73
2022/11/20 14:44:57;;;;;;;;;;;6.10;91.70;;;;;;5065794;28;19970;-73
2022/11/20 14:47:24;;;;;;;;;;;6.10;91.70;;;;;;5065747;28;20001;-73
2022/11/20 14:49:51;;;;;;;;;;;6.10;91.80;;;;;;5074212;28;20030;-73
2022/11/20 14:52:18;;;;;;;;;;;6.10;91.80;;;;;;5086495;28;19911;-73
2022/11/20 14:54:45;;;;;;;;;;;6.10;91.80;;;;;;5085901;28;19908;-73